Time;durP1;ratioP1;P1;durP2;ratioP2;P2;SDS_P1;SDS_P2;PMS_P1;PMS_P2;Temp;Humidity;BMP_temperature;BMP_pressure;BME280_temperature;BME280_humidity;BME280_pressure;Samples;Min_cycle;Max_cycle;Signal;HPM_P1;HPM_P2
2022/08/25 00:01:41;;;;;;;3.50;2.60;;;22.40;74.90;;;21.79;56.49;97439.84;4972001;28;20405;-72
2022/08/25 00:04:10;;;;;;;3.25;2.53;;;22.40;74.50;;;21.83;56.20;97433.47;4971315;28;20422;-72
2022/08/25 00:06:37;;;;;;;4.18;2.50;;;22.40;74.40;;;21.78;56.57;97436.34;4971905;28;20416;-72
2022/08/25 00:09:04;;;;;;;4.17;2.43;;;22.40;74.70;;;21.67;56.69;97434.31;4971644;28;20778;-72
2022/08/25 00:11:34;;;;;;;2.83;2.20;;;22.30;74.80;;;21.62;57.13;97429.91;4971836;28;20404;-72
2022/08/25 00:14:05;;;;;;;3.67;2.47;;;22.30;75.30;;;21.59;57.12;97434.00;4971348;28;20416;-72
2022/08/25 00:16:32;;;;;;;3.60;2.50;;;22.20;75.20;;;21.57;56.86;97427.38;4971722;28;20929;-72
2022/08/25 00:19:04;;;;;;;3.90;2.67;;;22.20;75.30;;;21.53;57.12;97427.22;4971658;28;20408;-72
2022/08/25 00:21:30;;;;;;;3.45;2.30;;;22.10;75.70;;;21.39;57.95;97425.81;4971900;28;20494;-72
2022/08/25 00:23:57;;;;;;;4.57;2.53;;;22.10;76.20;;;21.41;57.93;97427.09;4971217;28;20407;-72
2022/08/25 00:26:23;;;;;;;2.90;2.50;;;22.10;76.50;;;21.39;58.06;97426.63;4971831;28;20400;-72
2022/08/25 00:28:49;;;;;;;3.22;2.55;;;22.10;76.50;;;21.39;58.12;97425.81;4971567;28;20408;-72
2022/08/25 00:31:20;;;;;;;4.63;2.85;;;22.00;76.80;;;21.37;57.40;97423.44;4971717;28;20446;-72
2022/08/25 00:33:49;;;;;;;4.43;2.75;;;21.90;76.10;;;21.25;58.18;97436.78;4971131;28;20432;-72
2022/08/25 00:36:19;;;;;;;2.87;2.57;;;21.90;76.90;;;21.21;58.23;97422.34;4970813;28;20876;-72
2022/08/25 00:38:47;;;;;;;3.13;2.60;;;21.80;77.80;;;21.18;58.51;97425.72;4971535;28;20503;-72
2022/08/25 00:41:17;;;;;;;4.43;2.50;;;21.90;78.10;;;21.14;58.83;97427.41;4971614;28;20420;-71
2022/08/25 00:43:51;;;;;;;4.07;2.70;;;21.80;77.70;;;21.17;58.81;97429.50;4971084;28;20419;-71
2022/08/25 00:46:20;;;;;;;3.28;2.80;;;21.80;77.60;;;21.11;59.24;97434.22;4971563;28;20400;-72
2022/08/25 00:48:50;;;;;;;4.65;2.80;;;21.80;78.10;;;21.13;59.21;97436.59;4971289;28;20653;-72
2022/08/25 00:51:26;;;;;;;3.03;2.45;;;21.80;78.10;;;21.13;59.23;97433.88;4971490;28;20404;-72
2022/08/25 00:53:52;;;;;;;4.95;2.95;;;21.80;78.10;;;21.15;58.94;97424.41;4971022;28;20404;-72
2022/08/25 00:56:19;;;;;;;3.38;2.75;;;21.80;77.80;;;21.11;59.19;97434.22;4971382;28;20431;-72
2022/08/25 00:58:45;;;;;;;4.47;2.85;;;21.80;78.10;;;21.12;58.88;97430.44;4971300;28;20426;-72
2022/08/25 01:01:11;;;;;;;3.53;2.45;;;21.80;78.00;;;21.09;58.96;97427.56;4971479;28;20444;-72
2022/08/25 01:03:37;;;;;;;5.20;2.57;;;21.80;78.10;;;21.08;58.92;97426.00;4970877;28;20415;-72
2022/08/25 01:06:05;;;;;;;3.60;2.90;;;21.70;78.20;;;20.98;59.21;97418.22;4971370;28;20400;-72
2022/08/25 01:08:33;;;;;;;3.27;2.70;;;21.60;78.40;;;21.02;59.04;97416.50;4971207;28;20412;-72
2022/08/25 01:11:03;;;;;;;4.57;3.10;;;21.60;78.60;;;20.88;59.71;97410.47;4971353;28;20418;-72
2022/08/25 01:13:36;;;;;;;5.60;3.15;;;21.50;79.10;;;20.94;59.83;97411.91;4970757;28;20503;-72
2022/08/25 01:16:03;;;;;;;3.40;2.88;;;21.50;79.10;;;20.83;59.74;97412.22;4971289;28;20467;-71
2022/08/25 01:18:42;;;;;;;2.95;2.65;;;21.50;79.40;;;20.72;60.49;97405.56;4971103;28;20410;-71
2022/08/25 01:21:09;;;;;;;6.45;3.35;;;21.40;80.00;;;20.83;59.66;97404.13;4974079;28;20440;-71
2022/08/25 01:23:36;;;;;;;3.72;2.88;;;21.40;79.60;;;20.68;60.50;97401.91;4974413;28;20440;-71
2022/08/25 01:26:07;;;;;;;5.00;2.90;;;21.40;80.20;;;20.71;60.39;97406.69;4974832;28;20404;-71
2022/08/25 01:28:35;;;;;;;5.40;3.22;;;21.30;80.40;;;20.66;60.58;97404.16;4974500;28;20427;-71
2022/08/25 01:31:00;;;;;;;3.00;2.70;;;21.30;80.50;;;20.56;60.94;97407.13;4974583;28;20414;-72
2022/08/25 01:33:26;;;;;;;3.53;2.90;;;21.20;80.90;;;20.58;60.91;97409.53;4974287;28;20400;-71
2022/08/25 01:35:53;;;;;;;3.88;3.25;;;21.20;81.00;;;20.48;61.43;97415.97;4974531;28;20446;-72
2022/08/25 01:38:21;;;;;;;5.97;3.10;;;21.10;81.60;;;20.50;61.35;97410.28;4996246;23;20445;-75
2022/08/25 01:40:46;;;;;;;4.63;3.10;;;21.20;81.80;;;20.46;61.77;97412.81;4993261;28;20781;-76
2022/08/25 01:43:29;;;;;;;3.50;2.97;;;21.20;82.90;;;20.61;60.85;97406.19;4993355;28;20501;-76
2022/08/25 01:45:56;;;;;;;4.82;3.50;;;21.20;81.60;;;20.59;60.82;97417.28;4993683;28;20407;-76
2022/08/25 01:48:22;;;;;;;6.50;3.70;;;21.10;81.60;;;20.53;60.98;97417.72;5004909;28;20516;-76
2022/08/25 01:50:48;;;;;;;5.07;3.27;;;21.10;81.80;;;20.39;61.37;97418.66;5013139;28;20400;-76
2022/08/25 01:53:22;;;;;;;5.73;3.60;;;21.00;82.10;;;20.33;61.56;97414.53;5012751;28;20405;-76
2022/08/25 01:55:51;;;;;;;4.55;3.13;;;20.90;82.70;;;20.18;62.44;97412.25;5012960;28;20405;-76
2022/08/25 01:58:18;;;;;;;4.68;3.50;;;20.90;83.50;;;20.16;62.61;97413.66;5013128;28;20408;-76
2022/08/25 02:00:46;;;;;;;5.80;3.80;;;20.90;83.90;;;20.12;62.90;97412.72;5013020;28;20470;-76
2022/08/25 02:03:12;;;;;;;4.57;3.37;;;20.80;84.20;;;20.12;63.11;97408.13;5012545;28;20921;-76
2022/08/25 02:05:38;;;;;;;5.30;3.55;;;20.80;84.30;;;20.14;63.08;97408.63;4995283;28;20447;-76
2022/08/25 02:08:04;;;;;;;4.22;3.35;;;20.80;84.40;;;20.07;63.36;97409.03;5012944;28;20440;-76
2022/08/25 02:10:32;;;;;;;6.03;3.40;;;20.80;84.80;;;20.11;63.33;97417.28;5012741;28;20423;-76
2022/08/25 02:12:58;;;;;;;4.60;3.55;;;20.80;85.00;;;20.13;62.80;97425.03;5012462;28;20407;-76
2022/08/25 02:15:24;;;;;;;5.93;3.80;;;20.80;84.60;;;20.04;63.59;97419.63;5012675;28;20401;-76
2022/08/25 02:17:50;;;;;;;3.93;3.30;;;20.70;85.30;;;20.03;63.74;97423.41;5012544;28;20424;-76
2022/08/25 02:20:16;;;;;;;5.18;3.90;;;20.70;85.50;;;20.04;63.61;97422.31;5012715;28;20408;-76
2022/08/25 02:22:42;;;;;;;4.32;3.67;;;20.80;85.70;;;20.04;63.60;97428.50;5012563;28;20475;-76
2022/08/25 02:25:10;;;;;;;5.85;3.58;;;20.70;85.60;;;20.00;63.51;97429.41;5012354;28;20444;-76
2022/08/25 02:27:37;;;;;;;6.03;3.83;;;20.70;85.60;;;20.01;63.41;97421.03;5012589;28;20883;-77
2022/08/25 02:30:04;;;;;;;7.38;4.28;;;20.70;85.70;;;20.02;63.18;97421.84;5012563;28;20404;-76
2022/08/25 02:32:30;;;;;;;4.18;3.55;;;20.60;85.90;;;19.94;63.88;97412.63;5012258;28;20859;-76
2022/08/25 02:34:56;;;;;;;4.50;3.73;;;20.60;86.50;;;19.90;63.60;97409.00;5012075;28;20513;-76
2022/08/25 02:37:22;;;;;;;4.93;3.50;;;20.50;86.50;;;19.75;64.72;97420.16;5012228;28;20517;-76
2022/08/25 02:39:48;;;;;;;6.88;3.67;;;20.50;87.60;;;19.85;64.28;97417.19;5012492;28;20409;-76
2022/08/25 02:42:15;;;;;;;5.72;4.07;;;20.50;87.20;;;19.88;63.96;97421.94;5012233;28;20410;-76
2022/08/25 02:44:42;;;;;;;5.32;3.78;;;20.50;87.20;;;19.72;64.57;97426.13;5011777;28;20413;-76
2022/08/25 02:47:08;;;;;;;5.47;4.18;;;20.30;87.50;;;19.70;64.58;97415.69;5012129;28;20407;-76
2022/08/25 02:49:34;;;;;;;4.80;3.70;;;20.40;88.00;;;19.68;64.69;97422.50;5012114;28;20405;-76
2022/08/25 02:52:00;;;;;;;5.05;3.90;;;20.40;88.00;;;19.74;64.54;97415.09;5012241;28;20432;-76
2022/08/25 02:54:26;;;;;;;8.63;4.22;;;20.30;89.00;;;19.66;64.72;97424.69;5011633;28;20460;-76
2022/08/25 02:56:52;;;;;;;4.53;3.85;;;20.30;88.20;;;19.56;65.11;97420.38;5011950;28;20535;-76
2022/08/25 02:59:18;;;;;;;4.97;4.35;;;20.20;88.70;;;19.65;64.71;97412.34;5011902;28;20401;-76
2022/08/25 03:01:45;;;;;;;5.18;4.00;;;20.20;88.80;;;19.48;65.55;97420.31;5011929;28;20916;-76
2022/08/25 03:04:11;;;;;;;5.65;4.10;;;20.20;89.40;;;19.50;65.42;97413.53;5011444;28;20412;-77
2022/08/25 03:06:38;;;;;;;3.97;3.53;;;20.20;89.60;;;19.38;66.04;97407.94;5012010;28;20416;-76
2022/08/25 03:09:04;;;;;;;6.05;4.05;;;20.10;90.10;;;19.51;65.64;97408.97;5011840;28;20397;-76
2022/08/25 03:11:30;;;;;;;6.15;4.05;;;20.20;90.00;;;19.42;65.70;97408.88;5011815;28;20413;-76
2022/08/25 03:13:56;;;;;;;5.93;3.88;;;20.20;90.00;;;19.42;65.77;97408.88;5011168;28;20415;-76
2022/08/25 03:16:24;;;;;;;6.40;4.15;;;20.20;90.20;;;19.39;65.93;97401.47;5011742;28;20477;-76
2022/08/25 03:18:51;;;;;;;6.95;4.10;;;20.10;90.20;;;19.39;65.73;97403.34;5011575;28;20413;-76
2022/08/25 03:21:17;;;;;;;4.53;3.58;;;20.10;90.10;;;19.30;66.60;97398.72;5011535;28;20456;-76
2022/08/25 03:23:44;;;;;;;6.50;4.18;;;20.00;90.60;;;19.34;66.17;97404.25;5011262;28;20413;-76
2022/08/25 03:28:55;;;;;;;6.20;4.00;;;20.00;90.60;;;19.37;65.86;97408.22;5011504;28;20400;-76
2022/08/25 03:31:21;;;;;;;4.28;3.60;;;20.00;90.50;;;19.25;66.63;97406.88;5011428;28;20409;-76
2022/08/25 03:33:48;;;;;;;6.47;4.82;;;20.00;90.80;;;19.32;66.23;97411.84;5010934;28;20404;-76
2022/08/25 03:36:15;;;;;;;5.25;4.20;;;20.00;90.70;;;19.24;66.57;97415.25;5011225;28;20914;-76
2022/08/25 03:38:41;;;;;;;5.93;4.18;;;20.00;90.90;;;19.23;66.54;97398.38;5011150;28;20412;-76
2022/08/25 03:41:13;;;;;;;5.38;3.90;;;19.90;90.80;;;19.22;66.51;97404.03;5011231;28;20432;-76
2022/08/25 03:43:40;;;;;;;5.30;4.00;;;20.00;90.90;;;19.13;67.06;97403.19;5010193;28;20396;-76
2022/08/25 03:46:06;;;;;;;6.88;4.00;;;19.90;91.30;;;19.23;66.42;97405.63;5011157;28;20408;-76
2022/08/25 03:48:32;;;;;;;6.55;4.00;;;19.90;91.20;;;19.07;67.16;97391.78;4993391;28;20416;-76
2022/08/25 03:50:58;;;;;;;5.47;4.28;;;19.80;91.40;;;19.13;66.76;97387.88;5011094;28;20416;-76
2022/08/25 03:53:25;;;;;;;5.18;3.90;;;19.80;91.50;;;19.11;66.63;97389.25;5010806;28;20412;-76
2022/08/25 03:55:51;;;;;;;5.60;4.40;;;19.80;91.40;;;18.98;67.28;97384.75;5010810;28;20791;-76
2022/08/25 03:58:17;;;;;;;6.78;4.32;;;19.70;91.80;;;19.10;66.82;97388.47;5010902;28;20429;-76
2022/08/25 04:00:43;;;;;;;6.45;4.40;;;19.70;91.70;;;19.01;66.81;97390.31;5010932;28;20927;-76
2022/08/25 04:03:10;;;;;;;6.88;4.55;;;19.70;91.80;;;18.90;67.44;97384.41;5010384;28;20975;-76
2022/08/25 04:05:35;;;;;;;7.70;4.47;;;19.60;92.00;;;18.81;67.85;97388.09;5010825;28;20401;-76
2022/08/25 04:08:06;;;;;;;5.57;4.40;;;19.50;92.40;;;18.74;68.65;97391.22;5010749;28;20408;-76
2022/08/25 04:10:35;;;;;;;6.35;4.80;;;19.50;92.80;;;18.71;68.92;97386.47;5010825;28;20823;-76
2022/08/25 04:13:01;;;;;;;6.72;4.80;;;19.50;93.10;;;18.76;68.76;97388.22;5010353;28;20444;-77
2022/08/25 04:15:27;;;;;;;6.15;4.28;;;19.50;93.10;;;18.77;68.24;97387.94;5010671;28;20492;-78
2022/08/25 04:17:53;;;;;;;6.05;4.60;;;19.50;92.90;;;18.68;68.72;97387.06;5010558;28;20416;-76
2022/08/25 04:20:19;;;;;;;5.30;4.35;;;19.50;93.20;;;18.73;68.39;97396.88;5010723;28;20415;-76
2022/08/25 04:22:45;;;;;;;7.50;4.85;;;19.50;93.10;;;18.82;68.09;97395.06;5010322;28;20428;-76
2022/08/25 04:25:12;;;;;;;8.02;4.97;;;19.50;93.20;;;18.80;68.26;97398.03;5010621;28;20905;-76
2022/08/25 04:27:40;;;;;;;6.53;4.85;;;19.50;93.40;;;18.66;69.03;97401.84;5010613;28;20896;-77
2022/08/25 04:30:07;;;;;;;6.55;4.53;;;19.40;93.70;;;18.54;69.46;97395.13;5010661;28;20413;-76
2022/08/25 04:32:35;;;;;;;7.00;5.10;;;19.30;94.00;;;18.52;69.70;97391.94;4992893;28;20456;-76
2022/08/25 04:35:01;;;;;;;5.88;4.43;;;19.30;94.40;;;18.51;70.05;97387.66;5010201;28;20989;-76
2022/08/25 04:37:27;;;;;;;7.88;5.03;;;19.30;94.60;;;18.55;69.66;97385.19;5010224;28;20559;-76
2022/08/25 04:39:53;;;;;;;5.82;4.43;;;19.30;94.50;;;18.52;70.08;97388.47;5010579;28;20392;-76
2022/08/25 04:42:19;;;;;;;5.88;4.47;;;19.30;94.80;;;18.50;70.35;97391.44;5010495;28;20404;-76
2022/08/25 04:44:46;;;;;;;7.83;5.40;;;19.30;95.00;;;18.59;69.77;97394.22;5010058;28;21056;-76
2022/08/25 04:47:12;;;;;;;7.05;4.90;;;19.30;94.90;;;18.66;69.16;97386.56;5010323;28;20400;-76
2022/08/25 04:49:38;;;;;;;6.32;5.03;;;19.40;94.70;;;18.59;69.57;97385.41;5010540;28;20941;-76
2022/08/25 04:52:04;;;;;;;5.65;4.90;;;19.30;94.90;;;18.52;70.19;97391.13;5010466;28;20439;-77
2022/08/25 04:54:30;;;;;;;7.37;4.47;;;19.30;95.30;;;18.55;70.00;97396.72;5010072;28;20463;-76
2022/08/25 04:56:56;;;;;;;6.47;4.60;;;19.30;95.20;;;18.50;70.04;97396.00;4996689;28;20517;-76
2022/08/25 04:59:22;;;;;;;6.78;4.72;;;19.30;95.40;;;18.50;70.15;97401.38;5014256;28;20405;-77
2022/08/25 05:01:49;;;;;;;6.28;4.97;;;19.30;95.50;;;18.49;70.71;97410.53;5014356;28;20902;-76
2022/08/25 05:04:18;;;;;;;8.13;4.78;;;19.20;95.90;;;18.65;69.53;97411.78;5013700;28;20462;-76
2022/08/25 05:06:45;;;;;;;6.47;4.57;;;19.30;95.60;;;18.52;70.02;97407.22;5014289;28;20409;-76
2022/08/25 05:09:11;;;;;;;7.70;4.30;;;19.30;95.70;;;18.50;70.26;97410.19;5014023;28;20409;-76
2022/08/25 05:11:37;;;;;;;10.13;5.40;;;19.30;96.00;;;18.54;70.29;97405.84;5014043;28;20468;-77
2022/08/25 05:14:04;;;;;;;7.80;5.50;;;19.30;96.00;;;18.55;69.92;97403.94;5013608;28;20436;-76
2022/08/25 05:16:30;;;;;;;7.43;4.67;;;19.30;95.90;;;18.50;70.44;97402.16;5013889;28;21012;-77
2022/08/25 05:18:57;;;;;;;5.85;4.50;;;19.20;96.20;;;18.50;70.75;97393.31;5013854;28;20458;-77
2022/08/25 05:21:26;;;;;;;8.10;5.00;;;19.20;96.50;;;18.53;70.58;97396.22;5013850;28;20854;-76
2022/08/25 05:23:56;;;;;;;7.30;4.93;;;19.30;96.40;;;18.62;70.01;97395.53;5013288;28;20890;-76
2022/08/25 05:26:24;;;;;;;5.80;4.68;;;19.30;96.20;;;18.62;69.88;97388.28;5013735;28;20835;-77
2022/08/25 05:28:51;;;;;;;6.32;4.25;;;19.40;96.10;;;18.62;70.01;97395.53;5013631;28;20393;-76
2022/08/25 05:31:19;;;;;;;6.80;4.90;;;19.30;96.20;;;18.67;69.78;97393.50;5013761;28;20404;-76
2022/08/25 05:33:45;;;;;;;7.13;4.13;;;19.40;96.10;;;18.66;70.10;97394.59;5013220;28;20403;-76
2022/08/25 05:36:14;;;;;;;6.15;4.47;;;19.40;96.30;;;18.71;70.04;97388.34;5013627;28;20425;-76
2022/08/25 05:38:41;;;;;;;7.63;4.63;;;19.40;96.40;;;18.73;70.29;97383.47;5013321;28;20407;-76
2022/08/25 05:41:11;;;;;;;5.85;4.80;;;19.40;96.50;;;18.80;70.05;97381.16;5013567;28;20397;-76
2022/08/25 05:43:40;;;;;;;7.05;4.75;;;19.50;96.40;;;18.81;70.12;97388.91;5012977;28;20415;-76
2022/08/25 05:46:07;;;;;;;7.30;5.07;;;19.50;96.60;;;18.86;70.23;97388.78;4995734;28;20499;-76
2022/08/25 05:48:33;;;;;;;6.70;4.50;;;19.60;96.70;;;18.89;70.20;97382.00;5013124;28;20405;-76
2022/08/25 05:51:01;;;;;;;6.15;4.90;;;19.60;96.70;;;18.94;70.17;97384.59;5013151;28;20442;-76
2022/08/25 05:53:30;;;;;;;8.90;5.22;;;19.70;96.70;;;19.01;69.84;97378.78;5012817;28;20397;-76
2022/08/25 05:55:58;;;;;;;6.78;4.72;;;19.70;96.50;;;19.08;69.30;97371.91;5013006;28;20409;-76
2022/08/25 05:58:27;;;;;;;7.28;5.15;;;19.80;96.10;;;19.10;69.26;97375.06;5013158;28;20496;-76
2022/08/25 06:00:54;;;;;;;8.35;5.25;;;19.80;96.10;;;19.12;69.40;97372.88;5013118;28;20463;-76
2022/08/25 06:03:20;;;;;;;8.23;5.22;;;19.80;96.30;;;19.19;69.47;97369.75;5012644;28;20408;-76
2022/08/25 06:05:46;;;;;;;8.63;5.60;;;19.80;96.30;;;19.25;69.63;97380.03;5012440;28;20513;-76
2022/08/25 06:08:12;;;;;;;8.97;6.03;;;19.90;96.50;;;19.35;69.03;97373.63;5013189;28;20405;-76
2022/08/25 06:10:39;;;;;;;6.85;4.93;;;20.00;96.50;;;19.42;69.28;97379.34;5013007;28;20401;-76
2022/08/25 06:13:05;;;;;;;6.55;4.78;;;20.10;96.30;;;19.48;69.61;97385.41;5012663;28;20405;-76
2022/08/25 06:15:32;;;;;;;7.10;4.72;;;20.10;96.50;;;19.54;69.92;97390.38;4995236;28;20435;-76
2022/08/25 06:18:00;;;;;;;7.03;5.25;;;20.20;96.70;;;19.58;70.15;97385.94;4995223;28;20531;-77
2022/08/25 06:20:29;;;;;;;8.27;5.25;;;20.30;96.90;;;19.67;69.63;97389.47;5012957;28;20408;-76
2022/08/25 06:22:56;;;;;;;7.53;5.67;;;20.40;96.80;;;19.73;69.65;97379.38;5012394;28;20400;-76
2022/08/25 06:25:25;;;;;;;7.50;5.47;;;20.40;96.80;;;19.79;69.46;97385.41;5012656;28;20401;-76
2022/08/25 06:27:53;;;;;;;8.65;6.30;;;20.50;96.80;;;19.87;69.30;97382.75;5012547;28;20504;-76
2022/08/25 06:30:22;;;;;;;8.02;6.20;;;20.50;96.60;;;19.89;69.41;97377.06;5012607;28;20910;-76
2022/08/25 06:32:48;;;;;;;8.43;5.55;;;20.50;96.60;;;19.94;68.90;97383.09;5012107;28;20409;-76
2022/08/25 06:35:18;;;;;;;10.88;6.25;;;20.60;96.40;;;19.99;68.70;97379.47;5012483;28;20455;-76
2022/08/25 06:37:44;;;;;;;8.98;5.90;;;20.60;96.20;;;20.04;68.40;97385.50;5012276;28;20435;-76
2022/08/25 06:40:12;;;;;;;9.10;5.93;;;20.70;96.00;;;20.08;68.16;97382.97;5012399;28;20910;-76
2022/08/25 06:42:38;;;;;;;7.80;5.75;;;20.70;95.80;;;20.11;68.07;97390.41;5012284;28;20392;-76
2022/08/25 06:45:07;;;;;;;8.30;5.95;;;20.70;95.60;;;20.12;67.79;97377.78;4994508;28;20424;-76
2022/08/25 06:47:33;;;;;;;7.35;6.40;;;20.70;95.60;;;20.17;67.95;97377.63;5012208;28;20405;-76
2022/08/25 06:49:59;;;;;;;8.75;6.93;;;20.80;95.60;;;20.21;67.84;97381.28;5012365;28;20455;-76
2022/08/25 06:52:25;;;;;;;11.82;6.13;;;20.80;95.80;;;20.23;67.78;97379.84;5012327;28;20409;-76
2022/08/25 06:54:52;;;;;;;10.30;6.13;;;20.90;95.50;;;20.28;67.75;97379.72;5011796;28;20408;-76
2022/08/25 06:57:18;;;;;;;7.97;6.17;;;20.90;95.40;;;20.32;67.71;97377.97;5012050;28;20538;-77
2022/08/25 06:59:44;;;;;;;10.57;6.50;;;20.90;95.40;;;20.38;67.74;97371.34;5012116;28;20424;-76
2022/08/25 07:02:11;;;;;;;8.70;6.47;;;21.00;95.30;;;20.44;67.37;97372.03;5012109;28;20459;-76
2022/08/25 07:04:37;;;;;;;11.15;6.60;;;21.00;95.10;;;20.47;67.37;97366.78;5011713;28;20499;-77
2022/08/25 07:07:04;;;;;;;10.82;6.30;;;21.00;95.00;;;20.53;67.27;97369.31;5011891;28;20404;-76
2022/08/25 07:09:30;;;;;;;9.93;6.55;;;21.10;95.00;;;20.57;67.12;97365.69;5011842;28;20413;-76
2022/08/25 07:11:56;;;;;;;8.60;6.30;;;21.20;94.80;;;20.63;66.96;97358.25;5016456;28;20491;-77
2022/08/25 07:14:22;;;;;;;9.63;6.72;;;21.20;94.70;;;20.68;66.88;97364.25;5011654;28;20440;-76
2022/08/25 07:16:48;;;;;;;9.23;6.88;;;21.30;94.70;;;20.74;66.83;97360.31;5011547;28;20424;-76
2022/08/25 07:19:19;;;;;;;9.90;6.50;;;21.30;94.50;;;20.81;66.77;97357.94;5011110;28;20491;-76
2022/08/25 07:21:45;;;;;;;8.82;6.10;;;21.40;94.50;;;20.88;66.55;97357.47;5011878;28;20428;-76
2022/08/25 07:24:13;;;;;;;9.02;6.68;;;21.40;94.30;;;20.97;66.44;97362.84;5011230;28;20444;-76
2022/08/25 07:26:41;;;;;;;10.13;6.32;;;21.50;94.20;;;21.04;66.24;97360.47;5011825;28;20425;-76
2022/08/25 07:29:10;;;;;;;10.73;6.77;;;21.60;94.00;;;21.12;65.88;97351.56;5011752;28;20436;-77
2022/08/25 07:31:37;;;;;;;11.73;6.60;;;21.70;93.70;;;21.19;65.76;97358.09;5011633;28;20400;-76
2022/08/25 07:36:48;;;;;;;9.50;6.50;;;21.80;93.20;;;21.35;65.11;97349.50;5011430;28;20432;-76
2022/08/25 07:39:15;;;;;;;10.20;6.63;;;21.90;92.90;;;21.41;64.82;97354.38;5010564;23;20438;-73
2022/08/25 07:41:41;;;;;;;8.13;6.45;;;22.00;92.80;;;21.49;64.40;97361.66;4991175;28;20871;-73
2022/08/25 07:44:10;;;;;;;10.95;7.00;;;22.00;92.30;;;21.58;63.81;97354.31;4991206;28;20413;-73
2022/08/25 07:46:37;;;;;;;9.40;6.20;;;22.10;91.80;;;21.62;63.88;97352.56;4991639;28;20407;-73
2022/08/25 07:49:04;;;;;;;14.15;6.50;;;22.20;91.80;;;21.69;63.69;97352.06;5005004;28;20484;-70
2022/08/25 07:51:30;;;;;;;9.88;6.20;;;22.20;91.80;;;21.77;63.51;97350.44;5011197;28;20404;-71
2022/08/25 07:53:58;;;;;;;19.05;6.82;;;22.30;91.60;;;21.82;63.10;97358.34;5010663;28;20409;-71
2022/08/25 07:56:23;;;;;;;10.02;6.60;;;22.30;91.10;;;21.90;63.02;97358.28;5011070;28;20417;-71
2022/08/25 07:58:50;;;;;;;7.65;6.30;;;22.40;91.00;;;21.96;62.93;97358.91;5011047;28;20400;-71
2022/08/25 08:01:17;;;;;;;9.52;6.03;;;22.50;90.90;;;22.02;62.75;97356.84;5011038;28;20468;-71
2022/08/25 08:03:43;;;;;;;8.55;6.35;;;22.60;90.70;;;22.10;62.54;97362.22;4992866;28;20948;-72
2022/08/25 08:06:12;;;;;;;11.95;6.18;;;22.60;90.60;;;22.16;61.94;97354.72;5010955;28;20404;-70
2022/08/25 08:08:42;;;;;;;10.68;6.65;;;22.70;90.00;;;22.20;61.35;97345.63;4993341;28;20500;-71
2022/08/25 08:11:14;;;;;;;11.23;6.82;;;22.80;89.20;;;22.29;61.21;97351.75;5010867;28;20935;-71
2022/08/25 08:13:41;;;;;;;10.00;6.38;;;22.80;88.70;;;22.36;60.94;97345.84;5010429;28;20405;-73
2022/08/25 08:16:08;;;;;;;10.23;6.30;;;22.90;88.00;;;22.43;60.75;97356.91;5011030;28;20482;-71
2022/08/25 08:18:34;;;;;;;8.85;5.75;;;23.00;87.70;;;22.57;60.40;97354.72;5010806;28;20444;-71
2022/08/25 08:21:00;;;;;;;9.27;6.60;;;23.00;87.50;;;22.61;59.71;97350.28;5010955;28;20453;-71
2022/08/25 08:23:27;;;;;;;10.45;6.03;;;23.10;85.70;;;22.68;58.93;97355.13;5010343;28;20547;-71
2022/08/25 08:25:53;;;;;;;8.18;6.10;;;23.20;84.70;;;22.72;59.30;97351.44;5010721;28;20786;-72
2022/08/25 08:28:21;;;;;;;8.50;6.32;;;23.20;84.90;;;22.83;57.39;97349.16;5010449;28;20396;-71
2022/08/25 08:30:47;;;;;;;10.30;6.80;;;23.30;82.40;;;22.84;57.26;97352.66;5010729;28;20479;-71
2022/08/25 08:33:13;;;;;;;8.00;5.88;;;23.40;82.30;;;22.93;57.51;97351.44;5010256;28;20491;-71
2022/08/25 08:35:40;;;;;;;7.45;6.13;;;23.40;81.70;;;23.01;56.98;97350.56;5010592;28;20470;-71
2022/08/25 08:38:06;;;;;;;11.50;6.93;;;23.50;80.70;;;23.02;57.06;97354.84;5010341;28;20416;-71
2022/08/25 08:42:15;;;;;;;8.25;5.78;;;23.60;80.60;;;23.11;57.27;97349.38;5010642;28;20829;-71
2022/08/25 08:43:32;;;;;;;7.50;5.25;;;23.60;81.90;;;23.22;56.26;97349.75;5009868;28;20766;-72
2022/08/25 08:45:58;;;;;;;8.90;5.63;;;23.70;80.30;;;23.22;56.73;97347.84;5010623;28;20396;-71
2022/08/25 08:48:48;;;;;;;7.25;5.45;;;23.70;80.20;;;23.24;55.81;97339.38;5010494;28;20404;-71
2022/08/25 08:51:20;;;;;;;6.22;5.30;;;23.70;78.90;;;23.30;55.69;97346.19;5010457;28;20392;-72
2022/08/25 08:53:54;;;;;;;7.63;5.83;;;23.80;78.50;;;23.45;55.88;97349.03;5010137;28;20902;-72
2022/08/25 08:56:25;;;;;;;7.68;5.95;;;23.90;78.90;;;23.42;55.46;97338.88;5010473;28;20400;-72
2022/08/25 08:58:57;;;;;;;7.30;5.72;;;23.90;78.10;;;23.61;56.22;97337.56;4992706;28;20432;-73
2022/08/25 09:01:28;;;;;;;8.35;5.72;;;24.00;79.10;;;23.64;54.68;97336.91;5010432;28;20396;-73
2022/08/25 09:04:03;;;;;;;10.18;5.95;;;24.10;76.80;;;23.73;53.80;97340.28;5009950;28;20902;-72
2022/08/25 09:06:38;;;;;;;9.13;5.90;;;24.20;75.70;;;23.77;54.06;97331.16;5010232;28;20451;-72
2022/08/25 09:09:07;;;;;;;8.32;5.88;;;24.30;76.00;;;23.76;53.62;97334.19;5010348;28;20471;-72
2022/08/25 09:11:52;;;;;;;7.63;5.23;;;24.30;75.20;;;23.81;54.42;97328.59;5010344;28;20413;-72
2022/08/25 09:14:45;;;;;;;7.45;5.88;;;24.30;76.10;;;23.87;54.96;97329.94;5009923;28;20404;-73
2022/08/25 09:17:20;;;;;;;6.97;5.28;;;24.30;76.50;;;23.89;53.79;97333.88;5010163;28;20413;-72
2022/08/25 09:20:20;;;;;;;6.55;5.18;;;24.40;74.90;;;24.07;53.00;97325.50;5010212;28;20408;-72
2022/08/25 09:22:57;;;;;;;6.88;5.60;;;24.50;74.30;;;24.10;52.72;97327.56;5009842;28;20412;-72
2022/08/25 09:25:34;;;;;;;9.98;5.60;;;24.60;73.70;;;24.10;52.17;97332.97;5010166;28;20930;-72
2022/08/25 09:28:07;;;;;;;7.95;5.80;;;24.60;72.90;;;24.15;53.14;97321.91;5010219;28;20543;-72
2022/08/25 09:30:58;;;;;;;8.73;5.17;;;24.60;73.90;;;24.25;53.67;97321.47;4992563;28;20404;-72
2022/08/25 09:33:27;;;;;;;7.60;5.00;;;24.70;74.40;;;24.37;53.50;97316.03;5009790;28;20436;-72
2022/08/25 09:35:55;;;;;;;7.20;5.10;;;24.80;74.60;;;24.43;52.62;97316.59;5010046;28;20433;-72
2022/08/25 09:38:22;;;;;;;9.77;4.80;;;24.80;73.40;;;24.46;50.75;97313.97;5009726;28;20922;-72
2022/08/25 09:40:53;;;;;;;6.68;5.28;;;25.00;70.40;;;24.61;50.48;97309.75;4993105;28;20451;-72
2022/08/25 09:43:27;;;;;;;8.82;4.88;;;25.10;70.20;;;24.69;50.34;97311.53;5013189;28;20944;-72
2022/08/25 09:46:00;;;;;;;8.20;5.50;;;25.20;69.90;;;24.75;50.13;97309.38;5013590;28;20405;-71
2022/08/25 09:48:29;;;;;;;7.85;4.97;;;25.20;69.30;;;24.87;49.31;97307.41;5013466;28;20389;-72
2022/08/25 09:50:59;;;;;;;6.93;4.70;;;25.30;69.20;;;24.89;48.81;97312.47;5013349;28;20401;-72
2022/08/25 09:53:27;;;;;;;9.10;4.82;;;25.40;67.90;;;25.12;47.76;97318.13;5012995;28;20432;-72
2022/08/25 09:56:03;;;;;;;6.90;4.57;;;25.50;66.70;;;25.03;47.13;97302.06;5013317;28;20867;-72
2022/08/25 09:58:30;;;;;;;8.77;5.82;;;25.50;65.40;;;25.08;48.01;97304.50;5013274;28;20420;-72
2022/08/25 10:01:12;;;;;;;6.95;5.05;;;25.60;66.60;;;25.12;48.57;97299.97;5013344;28;20409;-72
2022/08/25 10:03:58;;;;;;;7.57;5.22;;;25.60;67.20;;;25.19;49.48;97302.84;5012640;28;20875;-72
2022/08/25 10:06:26;;;;;;;7.68;4.40;;;25.60;67.80;;;25.35;49.20;97305.56;5013196;28;20400;-72
2022/08/25 10:08:57;;;;;;;6.57;4.70;;;25.70;68.20;;;25.50;47.08;97299.38;5012964;28;20468;-72
2022/08/25 10:11:41;;;;;;;7.20;4.95;;;25.90;65.50;;;25.44;47.35;97295.34;5013081;28;20401;-72
2022/08/25 10:14:20;;;;;;;8.07;5.45;;;25.90;65.20;;;25.55;46.95;97291.00;5012671;28;20933;-72
2022/08/25 10:16:48;;;;;;;6.57;4.90;;;26.00;64.90;;;25.77;47.16;97287.69;5012961;28;20978;-71
2022/08/25 10:19:25;;;;;;;6.97;5.20;;;26.20;65.00;;;25.96;46.65;97283.44;5012745;28;20401;-72
2022/08/25 10:22:06;;;;;;;5.47;4.50;;;26.30;64.50;;;26.16;45.97;97283.13;5012780;28;20502;-71
2022/08/25 10:24:32;;;;;;;8.18;4.57;;;26.60;63.40;;;26.30;45.16;97273.75;5012537;28;20420;-72
2022/08/25 10:27:10;;;;;;;7.03;4.50;;;26.70;62.90;;;26.44;44.23;97282.97;5012743;28;20409;-71
2022/08/25 10:30:12;;;;;;;6.97;4.57;;;26.90;61.50;;;26.76;42.90;97280.91;5012526;28;20891;-71